Main page
METAR-TAF:

METAR-TAF

Airports :

Chièvres Air Base

Chièvres, Belgium

latitude: 50-34N, longitude: 003-50E, elevation: 60 m

Current weather observation

The report was made 22 minutes ago, at 02:25 UTC
Wind 8 kt from the Southwest
Temperature 18°C
Humidity 83%
Pressure 1014 hPa
Visibility 10 km or more

METAR: EBCV 190225Z AUTO 23008KT 9999 OVC014/// 18/15 Q1014 GRN

Time: 04:47 (02:47 UTC)

Forecast

The report was made 10 hours and 37 minutes ago, at 16:10 UTC
Forecast valid from 18 at 19 UTC to 19 at 07 UTC
Wind 8 kt from the South
Visibility 10 km or more
Few clouds at a height of 3500 ft
Becoming
from 19 at 02 UTC to 19 at 04 UTC
Visibility: 5000 m
Broken clouds at a height of 800 ft
mist
Temporary
from 19 at 03 UTC to 19 at 07 UTC
Visibility: 4000 m
mist

TAF: EBCV 181610Z 1819/1907 19008KT 9999 FEW035 BECMG 1902/1904 5000 BR BKN008 TEMPO 1903/1907 4000 BR BY EBWM

Weather observations and forecasts of more than 4000 airports (METAR and TAF reports).

The available stations are represented by yellow and red dots on the map.

Hover mouse over dot to see the name of the station.

Then click to see weather observations and forecasts.

To change the map : click on the green buttons with a black cross to zoom in, on the green button with a dash to zoom out, or on the green arrows for adjacent maps.


METAR-TAF: